sensor_id;sensor_type;location;lat;lon;timestamp;pressure;altitude;pressure_sealevel;temperature;humidity
46846;BME280;33947;46.804;134.252;2023-02-13T00:01:09;101720.91;;;-18.98;53.57
46846;BME280;33947;46.804;134.252;2023-02-13T00:04:13;101707.06;;;-19.09;55.22
46846;BME280;33947;46.804;134.252;2023-02-13T00:07:27;101445.78;;;-20.08;56.47
46846;BME280;33947;46.804;134.252;2023-02-13T00:10:42;101739.69;;;-17.60;55.30
46846;BME280;33947;46.804;134.252;2023-02-13T00:13:47;101734.88;;;-17.82;54.25
46846;BME280;33947;46.804;134.252;2023-02-13T00:16:51;101734.31;;;-17.79;54.48
46846;BME280;33947;46.804;134.252;2023-02-13T00:19:55;101741.50;;;-17.59;53.68
46846;BME280;33947;46.804;134.252;2023-02-13T00:22:59;101685.53;;;-17.52;53.82
46846;BME280;33947;46.804;134.252;2023-02-13T00:26:09;101731.50;;;-17.73;52.57
46846;BME280;33947;46.804;134.252;2023-02-13T00:29:18;101738.78;;;-18.34;53.81
46846;BME280;33947;46.804;134.252;2023-02-13T00:32:23;101741.31;;;-18.17;54.78
46846;BME280;33947;46.804;134.252;2023-02-13T00:35:29;101724.28;;;-18.35;54.82
46846;BME280;33947;46.804;134.252;2023-02-13T00:38:36;101737.56;;;-17.64;54.25
46846;BME280;33947;46.804;134.252;2023-02-13T00:41:41;101712.88;;;-17.90;54.95
46846;BME280;33947;46.804;134.252;2023-02-13T00:44:45;101540.06;;;-17.08;57.70
46846;BME280;33947;46.804;134.252;2023-02-13T00:47:50;101734.66;;;-14.55;54.06
46846;BME280;33947;46.804;134.252;2023-02-13T00:50:55;101724.16;;;-13.83;53.69
46846;BME280;33947;46.804;134.252;2023-02-13T00:54:00;101702.84;;;-13.05;52.52
46846;BME280;33947;46.804;134.252;2023-02-13T00:57:04;101723.78;;;-11.77;51.54
46846;BME280;33947;46.804;134.252;2023-02-13T01:00:10;101694.03;;;-12.17;50.06
46846;BME280;33947;46.804;134.252;2023-02-13T01:03:16;101702.16;;;-11.80;50.25
46846;BME280;33947;46.804;134.252;2023-02-13T01:06:24;101708.97;;;-11.05;50.32
46846;BME280;33947;46.804;134.252;2023-02-13T01:09:29;101713.06;;;-8.75;48.43
46846;BME280;33947;46.804;134.252;2023-02-13T01:12:34;101664.53;;;-8.18;44.39
46846;BME280;33947;46.804;134.252;2023-02-13T01:15:40;101715.44;;;-7.50;43.92
46846;BME280;33947;46.804;134.252;2023-02-13T01:18:44;101700.63;;;-7.66;44.20
46846;BME280;33947;46.804;134.252;2023-02-13T01:21:48;101679.78;;;-7.15;45.11
46846;BME280;33947;46.804;134.252;2023-02-13T01:24:53;101714.25;;;-7.01;43.10
46846;BME280;33947;46.804;134.252;2023-02-13T01:27:58;101674.00;;;-6.98;42.52
46846;BME280;33947;46.804;134.252;2023-02-13T01:31:02;101699.00;;;-6.83;43.01
46846;BME280;33947;46.804;134.252;2023-02-13T01:34:06;101696.34;;;-6.98;43.14
46846;BME280;33947;46.804;134.252;2023-02-13T01:37:11;101640.72;;;-7.75;42.82
46846;BME280;33947;46.804;134.252;2023-02-13T01:40:16;101676.47;;;-5.99;43.17
46846;BME280;33947;46.804;134.252;2023-02-13T01:43:20;101677.63;;;-5.78;40.53
46846;BME280;33947;46.804;134.252;2023-02-13T01:46:40;101689.03;;;-5.60;39.63
46846;BME280;33947;46.804;134.252;2023-02-13T01:49:46;101689.66;;;-5.64;39.82
46846;BME280;33947;46.804;134.252;2023-02-13T01:53:04;101687.66;;;-5.38;38.60
46846;BME280;33947;46.804;134.252;2023-02-13T01:56:32;101597.84;;;-5.86;38.29
46846;BME280;33947;46.804;134.252;2023-02-13T01:59:52;101689.84;;;-5.14;39.00
46846;BME280;33947;46.804;134.252;2023-02-13T02:03:04;101672.28;;;-5.67;39.61
46846;BME280;33947;46.804;134.252;2023-02-13T02:06:13;101690.63;;;-5.15;39.56
46846;BME280;33947;46.804;134.252;2023-02-13T02:09:24;101676.06;;;-5.13;39.08
46846;BME280;33947;46.804;134.252;2023-02-13T02:16:16;101668.69;;;-4.74;38.17
46846;BME280;33947;46.804;134.252;2023-02-13T02:33:40;101632.00;;;-5.30;38.31
46846;BME280;33947;46.804;134.252;2023-02-13T02:47:54;101624.59;;;-5.70;37.36
46846;BME280;33947;46.804;134.252;2023-02-13T02:51:29;101594.16;;;-7.50;38.59
46846;BME280;33947;46.804;134.252;2023-02-13T02:54:46;101616.47;;;-7.37;41.06
46846;BME280;33947;46.804;134.252;2023-02-13T02:58:23;101618.00;;;-6.84;40.46
46846;BME280;33947;46.804;134.252;2023-02-13T03:01:49;101604.34;;;-7.51;39.34
46846;BME280;33947;46.804;134.252;2023-02-13T03:05:25;101613.38;;;-7.58;39.12
46846;BME280;33947;46.804;134.252;2023-02-13T03:08:57;101597.19;;;-7.42;40.37
46846;BME280;33947;46.804;134.252;2023-02-13T03:12:23;101596.63;;;-7.51;39.80
46846;BME280;33947;46.804;134.252;2023-02-13T03:15:51;101576.69;;;-7.81;39.60
46846;BME280;33947;46.804;134.252;2023-02-13T03:19:54;101591.44;;;-8.32;40.79
46846;BME280;33947;46.804;134.252;2023-02-13T03:30:59;101567.06;;;-7.57;40.94
46846;BME280;33947;46.804;134.252;2023-02-13T03:34:14;101527.19;;;-8.29;40.50
46846;BME280;33947;46.804;134.252;2023-02-13T03:37:28;101564.97;;;-8.03;39.27
46846;BME280;33947;46.804;134.252;2023-02-13T03:41:10;101512.81;;;-7.99;42.18
46846;BME280;33947;46.804;134.252;2023-02-13T03:44:52;101521.84;;;-7.36;39.79
46846;BME280;33947;46.804;134.252;2023-02-13T03:48:18;101539.66;;;-7.26;38.57
46846;BME280;33947;46.804;134.252;2023-02-13T03:52:30;101537.91;;;-8.36;39.95
46846;BME280;33947;46.804;134.252;2023-02-13T03:55:20;101506.47;;;-8.04;37.85
46846;BME280;33947;46.804;134.252;2023-02-13T03:58:48;101523.25;;;-7.42;40.45
46846;BME280;33947;46.804;134.252;2023-02-13T04:02:15;101495.44;;;-7.88;39.48
46846;BME280;33947;46.804;134.252;2023-02-13T04:05:25;101448.00;;;-8.72;38.85
46846;BME280;33947;46.804;134.252;2023-02-13T04:08:31;101518.97;;;-8.10;40.35
46846;BME280;33947;46.804;134.252;2023-02-13T04:11:48;101494.47;;;-8.70;39.63
46846;BME280;33947;46.804;134.252;2023-02-13T04:15:00;101487.53;;;-8.45;41.19
46846;BME280;33947;46.804;134.252;2023-02-13T04:18:08;101509.44;;;-7.84;39.59
46846;BME280;33947;46.804;134.252;2023-02-13T04:21:17;101503.81;;;-8.32;40.47
46846;BME280;33947;46.804;134.252;2023-02-13T04:24:22;101485.63;;;-8.34;40.22
46846;BME280;33947;46.804;134.252;2023-02-13T04:27:27;101490.50;;;-8.79;40.49
46846;BME280;33947;46.804;134.252;2023-02-13T04:30:33;101488.44;;;-7.90;40.06
46846;BME280;33947;46.804;134.252;2023-02-13T04:33:37;101474.25;;;-8.37;39.98
46846;BME280;33947;46.804;134.252;2023-02-13T04:36:41;101472.28;;;-8.28;40.78
46846;BME280;33947;46.804;134.252;2023-02-13T04:39:48;101472.59;;;-8.50;40.92
46846;BME280;33947;46.804;134.252;2023-02-13T04:42:52;101461.50;;;-8.49;41.25
46846;BME280;33947;46.804;134.252;2023-02-13T04:45:57;101461.06;;;-8.82;40.01
46846;BME280;33947;46.804;134.252;2023-02-13T04:49:01;101464.03;;;-8.76;41.58
46846;BME280;33947;46.804;134.252;2023-02-13T04:52:06;101449.66;;;-8.32;39.99
46846;BME280;33947;46.804;134.252;2023-02-13T04:55:10;101411.13;;;-8.31;40.67
46846;BME280;33947;46.804;134.252;2023-02-13T04:58:15;101445.19;;;-7.94;40.09
46846;BME280;33947;46.804;134.252;2023-02-13T05:01:21;101445.22;;;-7.66;39.91
46846;BME280;33947;46.804;134.252;2023-02-13T05:04:25;101444.28;;;-7.95;38.44
46846;BME280;33947;46.804;134.252;2023-02-13T05:07:31;101435.19;;;-8.03;40.11
46846;BME280;33947;46.804;134.252;2023-02-13T05:10:35;101438.56;;;-8.18;39.83
46846;BME280;33947;46.804;134.252;2023-02-13T05:13:40;101437.16;;;-7.57;38.92
46846;BME280;33947;46.804;134.252;2023-02-13T05:16:46;101438.38;;;-8.34;39.45
46846;BME280;33947;46.804;134.252;2023-02-13T05:19:53;101439.78;;;-8.53;40.43
46846;BME280;33947;46.804;134.252;2023-02-13T05:22:59;101430.06;;;-8.57;39.79
46846;BME280;33947;46.804;134.252;2023-02-13T05:26:21;101390.69;;;-8.41;39.69
46846;BME280;33947;46.804;134.252;2023-02-13T05:29:29;101298.72;;;-8.97;40.19
46846;BME280;33947;46.804;134.252;2023-02-13T05:32:33;101395.66;;;-8.44;39.77
46846;BME280;33947;46.804;134.252;2023-02-13T05:35:38;101404.50;;;-7.99;39.69
46846;BME280;33947;46.804;134.252;2023-02-13T05:38:42;101391.38;;;-8.30;39.79
46846;BME280;33947;46.804;134.252;2023-02-13T05:41:47;101413.38;;;-8.22;40.71
46846;BME280;33947;46.804;134.252;2023-02-13T05:44:52;101417.53;;;-8.10;40.01
46846;BME280;33947;46.804;134.252;2023-02-13T05:47:56;101409.31;;;-8.18;40.11
46846;BME280;33947;46.804;134.252;2023-02-13T05:51:01;101383.06;;;-7.97;37.69
46846;BME280;33947;46.804;134.252;2023-02-13T05:54:05;101406.94;;;-7.73;38.25
46846;BME280;33947;46.804;134.252;2023-02-13T05:57:10;101408.66;;;-7.59;38.33
46846;BME280;33947;46.804;134.252;2023-02-13T06:00:15;101422.06;;;-7.64;38.54
46846;BME280;33947;46.804;134.252;2023-02-13T06:03:19;101377.03;;;-7.70;38.42
46846;BME280;33947;46.804;134.252;2023-02-13T06:06:23;101372.41;;;-7.75;38.79
46846;BME280;33947;46.804;134.252;2023-02-13T06:09:27;101411.94;;;-7.90;39.24
46846;BME280;33947;46.804;134.252;2023-02-13T06:12:31;101373.53;;;-8.27;39.09
46846;BME280;33947;46.804;134.252;2023-02-13T06:15:36;101395.56;;;-8.46;40.15
46846;BME280;33947;46.804;134.252;2023-02-13T06:18:40;101370.84;;;-8.84;39.53
46846;BME280;33947;46.804;134.252;2023-02-13T06:21:44;101405.09;;;-8.58;39.95
46846;BME280;33947;46.804;134.252;2023-02-13T06:24:47;101361.84;;;-9.30;40.45
46846;BME280;33947;46.804;134.252;2023-02-13T06:27:52;101337.59;;;-9.47;40.74
46846;BME280;33947;46.804;134.252;2023-02-13T06:30:58;101419.09;;;-8.68;39.87
46846;BME280;33947;46.804;134.252;2023-02-13T06:34:03;101416.41;;;-8.56;39.34
46846;BME280;33947;46.804;134.252;2023-02-13T06:37:07;101422.72;;;-8.37;38.64
46846;BME280;33947;46.804;134.252;2023-02-13T06:40:12;101384.84;;;-8.25;39.16
46846;BME280;33947;46.804;134.252;2023-02-13T06:43:16;101415.94;;;-8.22;36.94
46846;BME280;33947;46.804;134.252;2023-02-13T06:46:21;101395.41;;;-8.62;38.48
46846;BME280;33947;46.804;134.252;2023-02-13T06:49:26;101394.25;;;-8.39;38.80
46846;BME280;33947;46.804;134.252;2023-02-13T06:52:31;101404.91;;;-8.61;36.07
46846;BME280;33947;46.804;134.252;2023-02-13T06:55:35;101395.78;;;-8.43;39.22
46846;BME280;33947;46.804;134.252;2023-02-13T06:58:45;101410.69;;;-8.10;38.91
46846;BME280;33947;46.804;134.252;2023-02-13T07:01:51;101406.47;;;-8.36;38.00
46846;BME280;33947;46.804;134.252;2023-02-13T07:04:55;101387.84;;;-8.46;37.66
46846;BME280;33947;46.804;134.252;2023-02-13T07:07:59;101389.19;;;-8.66;38.59
46846;BME280;33947;46.804;134.252;2023-02-13T07:11:03;101365.59;;;-8.99;38.89
46846;BME280;33947;46.804;134.252;2023-02-13T07:14:08;101403.00;;;-8.77;38.67
46846;BME280;33947;46.804;134.252;2023-02-13T07:17:13;101397.56;;;-8.95;39.32
46846;BME280;33947;46.804;134.252;2023-02-13T07:20:17;101392.97;;;-9.26;39.45
46846;BME280;33947;46.804;134.252;2023-02-13T07:23:21;101385.78;;;-9.44;38.94
46846;BME280;33947;46.804;134.252;2023-02-13T07:26:26;101384.94;;;-9.56;39.68
46846;BME280;33947;46.804;134.252;2023-02-13T07:29:30;101355.97;;;-9.79;39.57
46846;BME280;33947;46.804;134.252;2023-02-13T07:32:35;101378.44;;;-9.77;39.79
46846;BME280;33947;46.804;134.252;2023-02-13T07:35:48;101382.41;;;-9.94;38.96
46846;BME280;33947;46.804;134.252;2023-02-13T07:38:53;101356.31;;;-10.12;39.50
46846;BME280;33947;46.804;134.252;2023-02-13T07:41:57;101371.03;;;-10.09;39.12
46846;BME280;33947;46.804;134.252;2023-02-13T07:45:02;101379.31;;;-10.13;39.67
46846;BME280;33947;46.804;134.252;2023-02-13T07:48:08;101301.34;;;-10.77;38.80
46846;BME280;33947;46.804;134.252;2023-02-13T07:51:13;101378.53;;;-10.50;40.02
46846;BME280;33947;46.804;134.252;2023-02-13T07:54:18;101365.38;;;-10.66;40.10
46846;BME280;33947;46.804;134.252;2023-02-13T07:57:22;101357.25;;;-10.72;39.45
46846;BME280;33947;46.804;134.252;2023-02-13T08:00:27;101351.22;;;-10.73;39.25
46846;BME280;33947;46.804;134.252;2023-02-13T08:03:31;101370.09;;;-10.60;39.43
46846;BME280;33947;46.804;134.252;2023-02-13T08:06:38;101322.66;;;-10.89;40.19
46846;BME280;33947;46.804;134.252;2023-02-13T08:09:44;101373.75;;;-10.57;39.80
46846;BME280;33947;46.804;134.252;2023-02-13T08:13:07;101380.22;;;-10.86;40.41
46846;BME280;33947;46.804;134.252;2023-02-13T08:16:13;101359.03;;;-10.95;40.12
46846;BME280;33947;46.804;134.252;2023-02-13T08:19:18;101361.38;;;-10.98;40.32
46846;BME280;33947;46.804;134.252;2023-02-13T08:22:22;101373.75;;;-11.05;40.43
46846;BME280;33947;46.804;134.252;2023-02-13T08:25:26;101364.03;;;-11.21;41.60
46846;BME280;33947;46.804;134.252;2023-02-13T08:28:31;101347.31;;;-11.61;42.66
46846;BME280;33947;46.804;134.252;2023-02-13T08:35:18;101313.13;;;-12.30;43.22
46846;BME280;33947;46.804;134.252;2023-02-13T08:38:23;101374.53;;;-11.86;43.78
46846;BME280;33947;46.804;134.252;2023-02-13T08:41:28;101378.94;;;-11.73;43.52
46846;BME280;33947;46.804;134.252;2023-02-13T08:44:32;101350.22;;;-11.91;43.08
46846;BME280;33947;46.804;134.252;2023-02-13T08:47:37;101376.97;;;-12.22;43.80
46846;BME280;33947;46.804;134.252;2023-02-13T08:50:42;101388.31;;;-12.40;44.25
46846;BME280;33947;46.804;134.252;2023-02-13T08:53:46;101368.50;;;-12.53;44.49
46846;BME280;33947;46.804;134.252;2023-02-13T08:56:51;101364.06;;;-12.56;44.24
46846;BME280;33947;46.804;134.252;2023-02-13T08:59:55;101376.06;;;-12.22;43.87
46846;BME280;33947;46.804;134.252;2023-02-13T09:03:04;101380.06;;;-12.58;44.38
46846;BME280;33947;46.804;134.252;2023-02-13T09:06:12;101373.34;;;-12.78;44.90
46846;BME280;33947;46.804;134.252;2023-02-13T09:09:16;101324.44;;;-12.71;44.45
46846;BME280;33947;46.804;134.252;2023-02-13T09:12:22;101368.16;;;-12.58;43.69
46846;BME280;33947;46.804;134.252;2023-02-13T09:15:30;101379.66;;;-12.53;43.70
46846;BME280;33947;46.804;134.252;2023-02-13T09:18:34;101364.78;;;-12.79;43.29
46846;BME280;33947;46.804;134.252;2023-02-13T09:21:41;101373.50;;;-12.87;43.79
46846;BME280;33947;46.804;134.252;2023-02-13T09:24:45;101377.66;;;-13.41;44.78
46846;BME280;33947;46.804;134.252;2023-02-13T09:27:49;101395.19;;;-13.56;45.59
46846;BME280;33947;46.804;134.252;2023-02-13T09:30:54;101363.25;;;-13.72;44.62
46846;BME280;33947;46.804;134.252;2023-02-13T09:33:59;101393.69;;;-13.44;44.88
46846;BME280;33947;46.804;134.252;2023-02-13T09:37:03;101380.84;;;-13.23;43.68
46846;BME280;33947;46.804;134.252;2023-02-13T09:40:52;101392.59;;;-13.87;45.38
46846;BME280;33947;46.804;134.252;2023-02-13T09:45:07;101401.50;;;-14.43;47.00
46846;BME280;33947;46.804;134.252;2023-02-13T09:51:18;101403.75;;;-14.56;46.85
46846;BME280;33947;46.804;134.252;2023-02-13T09:54:24;101387.66;;;-14.65;46.59
46846;BME280;33947;46.804;134.252;2023-02-13T09:57:52;101408.69;;;-14.38;46.69
46846;BME280;33947;46.804;134.252;2023-02-13T10:01:00;101403.41;;;-14.11;45.47
46846;BME280;33947;46.804;134.252;2023-02-13T10:07:49;101403.19;;;-14.43;46.11
46846;BME280;33947;46.804;134.252;2023-02-13T10:11:09;101405.28;;;-14.58;46.60
46846;BME280;33947;46.804;134.252;2023-02-13T10:14:26;101359.50;;;-14.86;46.58
46846;BME280;33947;46.804;134.252;2023-02-13T10:17:38;101397.63;;;-14.88;47.13
46846;BME280;33947;46.804;134.252;2023-02-13T10:20:51;101398.81;;;-14.55;46.42
46846;BME280;33947;46.804;134.252;2023-02-13T10:24:45;101383.75;;;-14.51;45.75
46846;BME280;33947;46.804;134.252;2023-02-13T10:27:54;101385.97;;;-14.75;45.84
46846;BME280;33947;46.804;134.252;2023-02-13T10:31:06;101395.63;;;-14.81;46.51
46846;BME280;33947;46.804;134.252;2023-02-13T10:34:17;101387.44;;;-15.07;47.14
46846;BME280;33947;46.804;134.252;2023-02-13T10:37:26;101390.53;;;-15.01;47.38
46846;BME280;33947;46.804;134.252;2023-02-13T10:40:38;101380.91;;;-15.33;48.24
46846;BME280;33947;46.804;134.252;2023-02-13T10:44:05;101367.63;;;-15.20;48.20
46846;BME280;33947;46.804;134.252;2023-02-13T10:50:44;101377.47;;;-14.95;47.30
46846;BME280;33947;46.804;134.252;2023-02-13T10:57:19;101376.72;;;-15.32;47.81
46846;BME280;33947;46.804;134.252;2023-02-13T11:00:55;101377.50;;;-15.61;49.09
46846;BME280;33947;46.804;134.252;2023-02-13T11:04:11;101372.13;;;-15.64;50.13
46846;BME280;33947;46.804;134.252;2023-02-13T11:07:19;101370.28;;;-15.37;49.17
46846;BME280;33947;46.804;134.252;2023-02-13T11:10:26;101375.19;;;-15.49;48.82
46846;BME280;33947;46.804;134.252;2023-02-13T11:13:33;101338.34;;;-15.53;48.50
46846;BME280;33947;46.804;134.252;2023-02-13T11:19:58;101330.84;;;-15.71;49.01
46846;BME280;33947;46.804;134.252;2023-02-13T11:26:37;101366.78;;;-15.48;48.92
46846;BME280;33947;46.804;134.252;2023-02-13T11:29:58;101383.81;;;-15.66;50.33
46846;BME280;33947;46.804;134.252;2023-02-13T11:33:17;101371.94;;;-15.19;49.45
46846;BME280;33947;46.804;134.252;2023-02-13T11:36:31;101363.19;;;-14.53;46.82
46846;BME280;33947;46.804;134.252;2023-02-13T11:39:36;101342.53;;;-14.96;47.84
46846;BME280;33947;46.804;134.252;2023-02-13T11:42:41;101342.22;;;-14.70;46.38
46846;BME280;33947;46.804;134.252;2023-02-13T11:45:47;101333.78;;;-14.79;46.67
46846;BME280;33947;46.804;134.252;2023-02-13T11:49:04;101367.50;;;-14.62;46.20
46846;BME280;33947;46.804;134.252;2023-02-13T11:59:12;101312.09;;;-14.84;47.51
46846;BME280;33947;46.804;134.252;2023-02-13T12:02:44;101349.03;;;-14.89;48.52
46846;BME280;33947;46.804;134.252;2023-02-13T12:09:13;101341.31;;;-14.80;47.95
46846;BME280;33947;46.804;134.252;2023-02-13T12:12:29;101276.50;;;-14.93;47.56
46846;BME280;33947;46.804;134.252;2023-02-13T12:15:39;101274.16;;;-15.30;48.56
46846;BME280;33947;46.804;134.252;2023-02-13T12:18:53;101321.22;;;-14.96;48.28
46846;BME280;33947;46.804;134.252;2023-02-13T12:25:18;101349.59;;;-15.02;49.22
46846;BME280;33947;46.804;134.252;2023-02-13T12:32:09;101335.94;;;-15.13;48.92
46846;BME280;33947;46.804;134.252;2023-02-13T12:35:40;101336.50;;;-15.26;49.62
46846;BME280;33947;46.804;134.252;2023-02-13T12:46:00;101329.72;;;-15.45;50.28
46846;BME280;33947;46.804;134.252;2023-02-13T12:56:23;101328.13;;;-15.91;53.15
46846;BME280;33947;46.804;134.252;2023-02-13T13:10:16;101284.38;;;-14.71;48.52
46846;BME280;33947;46.804;134.252;2023-02-13T13:23:19;101296.72;;;-14.75;50.17
46846;BME280;33947;46.804;134.252;2023-02-13T13:26:42;101296.88;;;-14.53;49.42
46846;BME280;33947;46.804;134.252;2023-02-13T13:29:57;101274.16;;;-14.60;48.56
46846;BME280;33947;46.804;134.252;2023-02-13T13:33:22;101236.91;;;-15.08;51.23
46846;BME280;33947;46.804;134.252;2023-02-13T13:36:49;101284.28;;;-14.91;51.70
46846;BME280;33947;46.804;134.252;2023-02-13T13:40:00;101281.59;;;-14.93;52.23
46846;BME280;33947;46.804;134.252;2023-02-13T13:50:02;101241.41;;;-14.45;49.73
46846;BME280;33947;46.804;134.252;2023-02-13T13:53:14;101215.22;;;-14.43;48.36
46846;BME280;33947;46.804;134.252;2023-02-13T13:56:20;101220.06;;;-14.46;48.86
46846;BME280;33947;46.804;134.252;2023-02-13T14:02:51;101269.88;;;-14.30;50.68
46846;BME280;33947;46.804;134.252;2023-02-13T14:06:17;101260.47;;;-14.61;51.67
46846;BME280;33947;46.804;134.252;2023-02-13T14:18:45;101228.38;;;-15.09;54.13
46846;BME280;33947;46.804;134.252;2023-02-13T14:21:52;101216.88;;;-14.74;52.32
46846;BME280;33947;46.804;134.252;2023-02-13T14:24:59;101261.28;;;-14.51;52.06
46846;BME280;33947;46.804;134.252;2023-02-13T14:28:05;101252.81;;;-14.81;52.91
46846;BME280;33947;46.804;134.252;2023-02-13T14:34:37;101257.31;;;-14.58;53.59
46846;BME280;33947;46.804;134.252;2023-02-13T14:37:54;101261.91;;;-15.04;55.17
46846;BME280;33947;46.804;134.252;2023-02-13T14:41:02;101203.38;;;-15.43;55.24
46846;BME280;33947;46.804;134.252;2023-02-13T14:44:32;101274.50;;;-14.76;54.43
46846;BME280;33947;46.804;134.252;2023-02-13T14:47:42;101248.94;;;-14.97;54.77
46846;BME280;33947;46.804;134.252;2023-02-13T14:50:52;101144.91;;;-15.11;53.12
46846;BME280;33947;46.804;134.252;2023-02-13T14:54:14;101254.84;;;-14.88;53.78
46846;BME280;33947;46.804;134.252;2023-02-13T14:57:32;101223.38;;;-15.18;54.20
46846;BME280;33947;46.804;134.252;2023-02-13T15:00:50;101262.81;;;-15.04;53.97
46846;BME280;33947;46.804;134.252;2023-02-13T15:07:25;101258.66;;;-14.93;54.00
46846;BME280;33947;46.804;134.252;2023-02-13T15:10:42;101258.66;;;-14.93;54.18
46846;BME280;33947;46.804;134.252;2023-02-13T15:13:51;101250.25;;;-14.92;54.72
46846;BME280;33947;46.804;134.252;2023-02-13T15:17:03;101253.75;;;-15.00;54.16
46846;BME280;33947;46.804;134.252;2023-02-13T15:20:22;101249.59;;;-14.89;54.33
46846;BME280;33947;46.804;134.252;2023-02-13T15:23:29;101247.00;;;-15.10;55.55
46846;BME280;33947;46.804;134.252;2023-02-13T15:26:34;101225.88;;;-15.28;54.59
46846;BME280;33947;46.804;134.252;2023-02-13T15:29:53;101257.63;;;-15.24;54.77
46846;BME280;33947;46.804;134.252;2023-02-13T15:32:58;101245.03;;;-15.23;54.86
46846;BME280;33947;46.804;134.252;2023-02-13T15:36:05;101231.63;;;-15.20;54.98
46846;BME280;33947;46.804;134.252;2023-02-13T15:39:16;101241.69;;;-15.51;55.41
46846;BME280;33947;46.804;134.252;2023-02-13T15:42:26;101226.56;;;-15.39;55.91
46846;BME280;33947;46.804;134.252;2023-02-13T15:45:30;101240.50;;;-15.36;55.53
46846;BME280;33947;46.804;134.252;2023-02-13T15:48:35;101236.50;;;-14.84;54.39
46846;BME280;33947;46.804;134.252;2023-02-13T15:51:40;101185.44;;;-15.04;54.05
46846;BME280;33947;46.804;134.252;2023-02-13T15:54:51;101234.25;;;-14.49;52.99
46846;BME280;33947;46.804;134.252;2023-02-13T15:57:59;101252.13;;;-14.29;52.54
46846;BME280;33947;46.804;134.252;2023-02-13T16:01:06;101236.06;;;-13.97;50.90
46846;BME280;33947;46.804;134.252;2023-02-13T16:07:49;101218.97;;;-14.08;51.86
46846;BME280;33947;46.804;134.252;2023-02-13T16:11:26;101215.88;;;-13.73;50.54
46846;BME280;33947;46.804;134.252;2023-02-13T16:14:34;101160.38;;;-14.58;52.68
46846;BME280;33947;46.804;134.252;2023-02-13T16:17:43;101188.06;;;-14.52;52.99
46846;BME280;33947;46.804;134.252;2023-02-13T16:20:53;101213.06;;;-14.38;53.74
46846;BME280;33947;46.804;134.252;2023-02-13T16:24:03;101167.13;;;-14.59;53.90
46846;BME280;33947;46.804;134.252;2023-02-13T16:27:14;101182.19;;;-14.82;54.51
46846;BME280;33947;46.804;134.252;2023-02-13T16:30:22;101208.75;;;-14.49;54.49
46846;BME280;33947;46.804;134.252;2023-02-13T16:33:28;101215.84;;;-14.66;55.75
46846;BME280;33947;46.804;134.252;2023-02-13T16:36:33;101202.56;;;-14.62;55.01
46846;BME280;33947;46.804;134.252;2023-02-13T16:39:37;101187.38;;;-15.02;56.21
46846;BME280;33947;46.804;134.252;2023-02-13T16:42:42;101197.59;;;-14.91;56.07
46846;BME280;33947;46.804;134.252;2023-02-13T16:45:47;101201.72;;;-14.42;54.83
46846;BME280;33947;46.804;134.252;2023-02-13T16:52:10;101201.56;;;-14.64;54.32
46846;BME280;33947;46.804;134.252;2023-02-13T16:55:20;101190.09;;;-14.28;52.93
46846;BME280;33947;46.804;134.252;2023-02-13T16:58:24;101162.81;;;-14.39;52.29
46846;BME280;33947;46.804;134.252;2023-02-13T17:01:29;101094.84;;;-15.01;52.84
46846;BME280;33947;46.804;134.252;2023-02-13T17:04:33;101201.84;;;-14.40;53.50
46846;BME280;33947;46.804;134.252;2023-02-13T17:07:46;100961.06;;;-16.08;52.75
46846;BME280;33947;46.804;134.252;2023-02-13T17:11:41;101192.88;;;-15.27;55.14
46846;BME280;33947;46.804;134.252;2023-02-13T17:14:52;101177.81;;;-15.63;55.71
46846;BME280;33947;46.804;134.252;2023-02-13T17:17:57;101184.94;;;-15.69;56.12
46846;BME280;33947;46.804;134.252;2023-02-13T17:21:02;101131.72;;;-16.15;56.49
46846;BME280;33947;46.804;134.252;2023-02-13T17:24:06;101177.88;;;-16.02;56.87
46846;BME280;33947;46.804;134.252;2023-02-13T17:27:15;101192.53;;;-15.99;56.99
46846;BME280;33947;46.804;134.252;2023-02-13T17:30:24;101195.78;;;-15.81;56.74
46846;BME280;33947;46.804;134.252;2023-02-13T17:33:30;101161.50;;;-16.14;57.10
46846;BME280;33947;46.804;134.252;2023-02-13T17:36:36;101167.00;;;-15.90;56.55
46846;BME280;33947;46.804;134.252;2023-02-13T17:39:41;101209.53;;;-15.89;55.85
46846;BME280;33947;46.804;134.252;2023-02-13T17:42:49;101199.69;;;-15.95;56.67
46846;BME280;33947;46.804;134.252;2023-02-13T17:45:55;101145.47;;;-16.13;55.82
46846;BME280;33947;46.804;134.252;2023-02-13T17:49:02;101146.31;;;-16.42;56.08
46846;BME280;33947;46.804;134.252;2023-02-13T17:52:08;101200.97;;;-16.28;57.47
46846;BME280;33947;46.804;134.252;2023-02-13T17:55:22;101198.16;;;-16.12;57.01
46846;BME280;33947;46.804;134.252;2023-02-13T17:58:27;101205.88;;;-16.02;56.84
46846;BME280;33947;46.804;134.252;2023-02-13T18:01:31;101146.47;;;-16.49;56.49
46846;BME280;33947;46.804;134.252;2023-02-13T18:04:36;101169.75;;;-16.36;56.67
46846;BME280;33947;46.804;134.252;2023-02-13T18:07:40;101204.84;;;-16.04;55.88
46846;BME280;33947;46.804;134.252;2023-02-13T18:10:46;101167.19;;;-16.55;55.54
46846;BME280;33947;46.804;134.252;2023-02-13T18:13:53;101171.75;;;-16.42;55.90
46846;BME280;33947;46.804;134.252;2023-02-13T18:16:58;101185.41;;;-16.78;56.06
46846;BME280;33947;46.804;134.252;2023-02-13T18:20:07;101193.84;;;-16.60;56.16
46846;BME280;33947;46.804;134.252;2023-02-13T18:23:12;101198.91;;;-16.97;56.34
46846;BME280;33947;46.804;134.252;2023-02-13T18:26:16;101183.19;;;-16.93;57.10